createdAt,value
2022-08-03T00:01:52.633Z,95222.34
2022-08-03T00:04:19.795Z,95213.44
2022-08-03T00:06:46.861Z,95217.19
2022-08-03T00:09:13.988Z,95218.72
2022-08-03T00:11:41.056Z,95223.75
2022-08-03T00:14:09.808Z,95222.88
2022-08-03T00:16:37.196Z,95236.13
2022-08-03T00:19:04.798Z,95225.09
2022-08-03T00:21:31.957Z,95225.59
2022-08-03T00:23:58.980Z,95216.97
2022-08-03T00:26:26.256Z,95221.16
2022-08-03T00:28:53.652Z,95217.13
2022-08-03T00:31:29.674Z,95216.59
2022-08-03T00:34:11.280Z,95209.81
2022-08-03T00:36:40.043Z,95222.06
2022-08-03T00:39:06.993Z,95219.88
2022-08-03T00:41:33.984Z,95217.41
2022-08-03T00:44:01.149Z,95220.31
2022-08-03T00:46:28.252Z,95230.97
2022-08-03T00:48:55.298Z,95221.84
2022-08-03T00:51:23.313Z,95219.69
2022-08-03T00:53:51.252Z,95218.88
2022-08-03T00:56:18.659Z,95219.13
2022-08-03T00:58:47.358Z,95219.13
2022-08-03T01:01:15.663Z,95213.00
2022-08-03T01:03:42.801Z,95218.88
2022-08-03T01:06:27.179Z,95219.13
2022-08-03T01:09:12.680Z,95217.28
2022-08-03T01:12:04.160Z,95218.31
2022-08-03T01:14:41.813Z,95220.72
2022-08-03T01:17:57.442Z,95211.06
2022-08-03T01:20:27.755Z,95215.81
2022-08-03T01:23:16.319Z,95214.19
2022-08-03T01:26:36.862Z,95213.88
2022-08-03T01:29:39.677Z,95210.41
2022-08-03T01:32:58.041Z,95200.56
2022-08-03T01:35:12.589Z,95211.78
2022-08-03T01:37:52.309Z,95205.66
2022-08-03T01:40:22.373Z,95200.09
2022-08-03T01:42:52.184Z,95200.88
2022-08-03T01:45:20.949Z,95207.03
2022-08-03T01:47:49.937Z,95205.97
2022-08-03T01:50:21.567Z,95206.78
2022-08-03T01:52:50.180Z,95197.69
2022-08-03T01:55:19.566Z,95196.06
2022-08-03T01:58:05.819Z,95196.31
2022-08-03T02:00:37.685Z,95193.53
2022-08-03T02:03:09.937Z,95196.44
2022-08-03T02:05:40.085Z,95201.75
2022-08-03T02:08:13.853Z,95195.06
2022-08-03T02:10:43.690Z,95193.44
2022-08-03T02:13:11.343Z,95199.81
2022-08-03T02:15:39.487Z,95196.28
2022-08-03T02:18:10.676Z,95194.66
2022-08-03T02:20:40.289Z,95203.94
2022-08-03T02:23:07.884Z,95196.19
2022-08-03T02:25:52.395Z,95199.34
2022-08-03T02:28:22.941Z,95188.63
2022-08-03T02:30:56.051Z,95188.13
2022-08-03T02:33:31.999Z,95196.09
2022-08-03T02:36:01.612Z,95187.78
2022-08-03T02:38:36.561Z,95190.53
2022-08-03T02:41:09.684Z,95191.34
2022-08-03T02:43:56.777Z,95187.66
2022-08-03T02:46:34.105Z,95198.28
2022-08-03T02:49:41.359Z,95196.69
2022-08-03T02:51:55.247Z,95192.66
2022-08-03T02:54:25.165Z,95189.41
2022-08-03T02:56:55.372Z,95194.28
2022-08-03T02:59:23.599Z,95186.75
2022-08-03T03:01:51.737Z,95186.19
2022-08-03T03:04:19.296Z,95192.22
2022-08-03T03:06:49.096Z,95194.59
2022-08-03T03:09:17.603Z,95189.72
2022-08-03T03:11:45.264Z,95192.06
2022-08-03T03:14:13.568Z,95183.75
2022-08-03T03:16:42.438Z,95192.22
2022-08-03T03:19:13.392Z,95194.06
2022-08-03T03:21:41.084Z,95189.00
2022-08-03T03:24:10.430Z,95193.28
2022-08-03T03:26:42.493Z,95194.88
2022-08-03T03:29:10.090Z,95190.63
2022-08-03T03:31:37.467Z,95188.75
2022-08-03T03:34:05.185Z,95188.50
2022-08-03T03:36:33.872Z,95195.44
2022-08-03T03:39:15.941Z,95192.78
2022-08-03T03:41:44.085Z,95189.31
2022-08-03T03:44:11.152Z,95189.31
2022-08-03T03:46:39.781Z,95193.81
2022-08-03T03:49:07.676Z,95194.88
2022-08-03T03:51:35.224Z,95198.34
2022-08-03T03:54:07.114Z,95195.09
2022-08-03T03:56:34.376Z,95198.59
2022-08-03T03:59:01.526Z,95196.41
2022-08-03T04:01:29.464Z,95202.53
2022-08-03T04:03:56.563Z,95199.06
2022-08-03T04:06:44.164Z,95202.28
2022-08-03T04:09:30.075Z,95198.00
2022-08-03T04:12:02.049Z,95202.28
2022-08-03T04:14:34.075Z,95204.69
2022-08-03T04:17:07.740Z,95208.97
2022-08-03T04:19:40.882Z,95208.50
2022-08-03T04:22:13.065Z,95204.56
2022-08-03T04:24:47.132Z,95208.34
2022-08-03T04:27:18.460Z,95207.38
2022-08-03T04:29:49.689Z,95209.34
2022-08-03T04:32:18.195Z,95206.75
2022-08-03T04:34:45.889Z,95208.69
2022-08-03T04:37:27.013Z,95212.78
2022-08-03T04:39:58.923Z,95209.41
2022-08-03T04:42:27.567Z,95203.03
2022-08-03T04:45:00.783Z,95217.09
2022-08-03T04:47:31.493Z,95216.94
2022-08-03T04:50:00.569Z,95219.44
2022-08-03T04:52:27.648Z,95220.88
2022-08-03T04:54:54.601Z,95218.06
2022-08-03T04:57:22.822Z,95215.44
2022-08-03T05:00:01.255Z,95214.22
2022-08-03T05:02:31.376Z,95215.94
2022-08-03T05:04:59.193Z,95227.75
2022-08-03T05:07:26.583Z,95222.25
2022-08-03T05:10:16.517Z,95227.13
2022-08-03T05:12:48.116Z,95227.75
2022-08-03T05:15:16.033Z,95225.53
2022-08-03T05:17:44.376Z,95227.19
2022-08-03T05:20:12.860Z,95224.63
2022-08-03T05:22:40.022Z,95227.13
2022-08-03T05:25:07.843Z,95226.66
2022-08-03T05:27:35.132Z,95229.16
2022-08-03T05:30:29.652Z,95233.78
2022-08-03T05:32:49.229Z,95237.06
2022-08-03T05:36:01.565Z,95227.22
2022-08-03T05:38:05.156Z,95228.94
2022-08-03T05:40:32.992Z,95226.88
2022-08-03T05:43:00.725Z,95224.03
2022-08-03T05:45:28.806Z,95217.38
2022-08-03T05:47:56.049Z,95228.44
2022-08-03T05:50:24.117Z,95228.22
2022-08-03T05:52:51.433Z,95229.84
2022-08-03T05:55:19.135Z,95241.97
2022-08-03T05:57:47.538Z,95235.88
2022-08-03T06:00:16.984Z,95230.31
2022-08-03T06:02:45.196Z,95233.06
2022-08-03T06:05:12.240Z,95232.81
2022-08-03T06:07:39.731Z,95233.16
2022-08-03T06:10:36.528Z,95233.47
2022-08-03T06:12:56.292Z,95228.47
2022-08-03T06:15:23.497Z,95229.81
2022-08-03T06:17:52.127Z,95231.22
2022-08-03T06:20:21.066Z,95230.47
2022-08-03T06:22:50.786Z,95225.13
2022-08-03T06:25:21.292Z,95222.47
2022-08-03T06:27:48.931Z,95231.38
2022-08-03T06:30:21.121Z,95239.72
2022-08-03T06:32:51.686Z,95238.94
2022-08-03T06:35:20.378Z,95234.38
2022-08-03T06:37:51.586Z,95238.41
2022-08-03T06:40:29.120Z,95240.03
2022-08-03T06:43:00.953Z,95242.44
2022-08-03T06:45:31.815Z,95245.38
2022-08-03T06:48:11.601Z,95245.41
2022-08-03T06:50:41.739Z,95246.75
2022-08-03T06:53:18.145Z,95249.44
2022-08-03T06:55:51.147Z,95252.88
2022-08-03T06:58:21.227Z,95248.06
2022-08-03T07:00:48.417Z,95249.09
2022-08-03T07:03:15.609Z,95254.19
2022-08-03T07:05:48.082Z,95253.34
2022-08-03T07:08:15.698Z,95246.06
2022-08-03T07:10:43.505Z,95249.78
2022-08-03T07:13:11.378Z,95241.41
2022-08-03T07:15:55.654Z,95249.16
2022-08-03T07:18:29.236Z,95255.53
2022-08-03T07:20:58.354Z,95248.00
2022-08-03T07:23:25.928Z,95244.19
2022-08-03T07:25:53.111Z,95245.78
2022-08-03T07:28:20.729Z,95243.31
2022-08-03T07:30:48.097Z,95246.75
2022-08-03T07:33:15.737Z,95243.19
2022-08-03T07:35:42.851Z,95245.28
2022-08-03T07:38:12.611Z,95244.69
2022-08-03T07:40:44.435Z,95244.09
2022-08-03T07:43:13.486Z,95239.97
2022-08-03T07:45:40.458Z,95242.09
2022-08-03T07:48:11.935Z,95245.25
2022-08-03T07:50:39.649Z,95238.44
2022-08-03T07:53:06.773Z,95242.41
2022-08-03T07:55:35.229Z,95247.16
2022-08-03T07:58:09.942Z,95248.16
2022-08-03T08:00:37.569Z,95244.84
2022-08-03T08:03:05.703Z,95237.22
2022-08-03T08:05:33.882Z,95248.19
2022-08-03T08:08:05.020Z,95242.44
2022-08-03T08:10:32.884Z,95235.91
2022-08-03T08:13:00.393Z,95235.28
2022-08-03T08:15:28.091Z,95236.03
2022-08-03T08:17:59.646Z,95239.16
2022-08-03T08:20:37.921Z,95236.94
2022-08-03T08:23:37.663Z,95240.84
2022-08-03T08:25:56.150Z,95237.78
2022-08-03T08:28:32.585Z,95224.78
2022-08-03T08:31:02.120Z,95230.59
2022-08-03T08:33:47.862Z,95232.44
2022-08-03T08:36:16.988Z,95234.75
2022-08-03T08:38:45.306Z,95227.91
2022-08-03T08:41:14.679Z,95227.53
2022-08-03T08:43:42.256Z,95224.47
2022-08-03T08:46:23.589Z,95229.19
2022-08-03T08:48:53.604Z,95226.09
2022-08-03T08:51:22.569Z,95221.94
2022-08-03T08:53:54.106Z,95233.47
2022-08-03T08:56:26.034Z,95228.50
2022-08-03T08:59:01.437Z,95233.78
2022-08-03T09:01:30.724Z,95230.22
2022-08-03T09:03:57.837Z,95228.72
2022-08-03T09:06:25.169Z,95225.94
2022-08-03T09:08:52.527Z,95221.75
2022-08-03T09:12:00.918Z,95219.44
2022-08-03T09:14:36.599Z,95220.44
2022-08-03T09:17:04.551Z,95221.34
2022-08-03T09:19:33.535Z,95226.09
2022-08-03T09:22:18.631Z,95224.06
2022-08-03T09:25:27.195Z,95216.69
2022-08-03T09:27:54.509Z,95221.38
2022-08-03T09:30:34.487Z,95226.34
2022-08-03T09:33:08.740Z,95218.66
2022-08-03T09:35:54.154Z,95220.63
2022-08-03T09:38:27.449Z,95226.22
2022-08-03T09:41:00.033Z,95215.00
2022-08-03T09:43:28.485Z,95222.22
2022-08-03T09:46:05.865Z,95203.00
2022-08-03T09:48:37.271Z,95209.09
2022-08-03T09:51:14.041Z,95205.19
2022-08-03T09:53:59.702Z,95194.06
2022-08-03T09:56:47.524Z,95200.16
2022-08-03T09:59:28.289Z,95193.00
2022-08-03T10:01:57.660Z,95194.81
2022-08-03T10:04:25.556Z,95189.59
2022-08-03T10:07:11.186Z,95191.06
2022-08-03T10:09:38.687Z,95192.25
2022-08-03T10:12:14.099Z,95193.41
2022-08-03T10:14:45.548Z,95200.31
2022-08-03T10:17:13.047Z,95195.84
2022-08-03T10:19:41.553Z,95197.03
2022-08-03T10:22:12.735Z,95193.41
2022-08-03T10:24:54.693Z,95187.88
2022-08-03T10:27:24.560Z,95189.94
2022-08-03T10:29:55.809Z,95190.09
2022-08-03T10:32:41.906Z,95184.69
2022-08-03T10:35:21.549Z,95186.97
2022-08-03T10:38:08.734Z,95188.25
2022-08-03T10:40:48.539Z,95178.88
2022-08-03T10:43:29.073Z,95188.47
2022-08-03T10:45:58.105Z,95175.63
2022-08-03T10:48:26.308Z,95176.25
2022-08-03T10:50:54.073Z,95178.03
2022-08-03T10:53:55.059Z,95182.50
2022-08-03T10:56:53.556Z,95180.94
2022-08-03T10:59:47.158Z,95175.69
2022-08-03T11:02:15.700Z,95180.97
2022-08-03T11:04:45.401Z,95175.69
2022-08-03T11:07:25.537Z,95180.19
2022-08-03T11:09:56.605Z,95176.53
2022-08-03T11:12:32.269Z,95183.72
2022-08-03T11:15:07.517Z,95185.47
2022-08-03T11:17:45.712Z,95176.41
2022-08-03T11:20:14.142Z,95183.13
2022-08-03T11:22:54.137Z,95183.13
2022-08-03T11:25:53.630Z,95179.94
2022-08-03T11:28:28.553Z,95181.84
2022-08-03T11:30:56.070Z,95175.66
2022-08-03T11:33:30.703Z,95179.78
2022-08-03T11:36:02.703Z,95176.13
2022-08-03T11:38:30.020Z,95169.88
2022-08-03T11:40:57.405Z,95172.59
2022-08-03T11:43:31.559Z,95164.16
2022-08-03T11:46:28.233Z,95171.66
2022-08-03T11:49:10.315Z,95175.19
2022-08-03T11:51:39.996Z,95164.81
2022-08-03T11:54:07.363Z,95170.88
2022-08-03T11:56:49.615Z,95166.38
2022-08-03T11:59:22.120Z,95164.16
2022-08-03T12:01:50.790Z,95161.25
2022-08-03T12:04:17.908Z,95156.66
2022-08-03T12:07:01.818Z,95161.41
2022-08-03T12:09:28.992Z,95164.63
2022-08-03T12:12:00.280Z,95162.53
2022-08-03T12:14:49.910Z,95154.53
2022-08-03T12:17:17.392Z,95155.50
2022-08-03T12:19:45.435Z,95151.50
2022-08-03T12:22:13.606Z,95162.47
2022-08-03T12:24:42.757Z,95158.94
2022-08-03T12:27:10.025Z,95157.09
2022-08-03T12:29:37.314Z,95145.97
2022-08-03T12:32:04.786Z,95146.06
2022-08-03T12:34:48.913Z,95151.97
2022-08-03T12:37:23.810Z,95136.19
2022-08-03T12:40:01.328Z,95136.81
2022-08-03T12:42:35.515Z,95144.13
2022-08-03T12:45:25.592Z,95137.53
2022-08-03T12:47:59.050Z,95140.03
2022-08-03T12:50:31.936Z,95137.25
2022-08-03T12:53:08.022Z,95122.13
2022-08-03T12:55:40.206Z,95120.03
2022-08-03T12:58:35.410Z,95126.09
2022-08-03T13:01:09.975Z,95124.09
2022-08-03T13:03:50.131Z,95119.56
2022-08-03T13:06:25.401Z,95119.50
2022-08-03T13:09:07.414Z,95124.88
2022-08-03T13:11:55.848Z,95121.06
2022-08-03T13:14:23.800Z,95121.19
2022-08-03T13:16:51.509Z,95132.66
2022-08-03T13:19:19.074Z,95120.03
2022-08-03T13:22:01.333Z,95118.41
2022-08-03T13:24:32.960Z,95116.28
2022-08-03T13:27:02.806Z,95108.50
2022-08-03T13:29:49.662Z,95118.00
2022-08-03T13:32:16.946Z,95105.00
2022-08-03T13:34:44.573Z,95107.84
2022-08-03T13:37:12.202Z,95109.03
2022-08-03T13:39:57.226Z,95110.66
2022-08-03T13:42:26.348Z,95109.47
2022-08-03T13:44:53.327Z,95102.75
2022-08-03T13:47:20.998Z,95096.47
2022-08-03T13:50:00.269Z,95095.69
2022-08-03T13:52:34.633Z,95095.63
2022-08-03T13:55:04.357Z,95092.09
2022-08-03T13:58:02.453Z,95080.91
2022-08-03T14:00:28.072Z,95083.94
2022-08-03T14:03:09.216Z,95084.75
2022-08-03T14:05:41.197Z,95078.16
2022-08-03T14:08:08.735Z,95083.63
2022-08-03T14:10:42.584Z,95072.06
2022-08-03T14:13:12.976Z,95066.41
2022-08-03T14:15:50.183Z,95072.19
2022-08-03T14:18:29.048Z,95065.03
2022-08-03T14:21:07.010Z,95066.72
2022-08-03T14:23:37.400Z,95062.75
2022-08-03T14:26:10.146Z,95063.47
2022-08-03T14:28:37.381Z,95069.06
2022-08-03T14:31:08.163Z,95066.72
2022-08-03T14:33:43.367Z,95057.81
2022-08-03T14:36:10.324Z,95063.28
2022-08-03T14:38:37.313Z,95069.84
2022-08-03T14:41:04.689Z,95065.03
2022-08-03T14:43:33.869Z,95066.25
2022-08-03T14:46:02.653Z,95054.09
2022-08-03T14:50:30.416Z,95063.63
2022-08-03T14:51:16.826Z,95057.81
2022-08-03T14:53:43.841Z,95062.47
2022-08-03T14:56:11.088Z,95063.16
2022-08-03T14:58:39.109Z,95051.88
2022-08-03T15:02:02.107Z,95048.50
2022-08-03T15:03:54.907Z,95043.03
2022-08-03T15:06:21.842Z,95047.97
2022-08-03T15:09:13.629Z,95041.19
2022-08-03T15:11:37.112Z,95045.66
2022-08-03T15:14:09.024Z,95044.97
2022-08-03T15:16:38.061Z,95037.47
2022-08-03T15:19:59.448Z,95047.81
2022-08-03T15:21:53.340Z,95048.22
2022-08-03T15:24:20.832Z,95042.13
2022-08-03T15:26:47.859Z,95044.91
2022-08-03T15:30:06.700Z,95041.53
2022-08-03T15:32:06.079Z,95033.47
2022-08-03T15:34:35.882Z,95038.28
2022-08-03T15:37:03.059Z,95043.69
2022-08-03T15:40:00.118Z,95039.59
2022-08-03T15:42:31.121Z,95037.34
2022-08-03T15:44:58.493Z,95032.66
2022-08-03T15:47:25.681Z,95032.78
2022-08-03T15:49:53.545Z,95032.91
2022-08-03T15:52:20.642Z,95039.84
2022-08-03T15:54:47.676Z,95036.75
2022-08-03T15:57:17.232Z,95029.72
2022-08-03T15:59:44.311Z,95024.84
2022-08-03T16:02:11.398Z,95034.03
2022-08-03T16:04:38.387Z,95033.94
2022-08-03T16:07:05.658Z,95027.47
2022-08-03T16:09:42.127Z,95032.72
2022-08-03T16:12:16.211Z,95032.72
2022-08-03T16:14:52.820Z,95021.91
2022-08-03T16:17:21.688Z,95027.13
2022-08-03T16:19:49.098Z,95018.84
2022-08-03T16:22:19.470Z,95016.75
2022-08-03T16:24:47.154Z,95020.47
2022-08-03T16:27:17.641Z,95003.84
2022-08-03T16:30:01.888Z,95010.41
2022-08-03T16:32:29.171Z,95010.16
2022-08-03T16:34:56.152Z,95005.56
2022-08-03T16:37:38.277Z,95011.19
2022-08-03T16:40:18.925Z,95007.69
2022-08-03T16:42:47.963Z,95007.78
2022-08-03T16:45:15.052Z,94997.84
2022-08-03T16:47:42.302Z,95005.94
2022-08-03T16:50:15.777Z,94998.03
2022-08-03T16:52:47.020Z,95012.53
2022-08-03T16:55:18.358Z,95000.88
2022-08-03T16:58:03.874Z,95005.09
2022-08-03T17:00:45.529Z,95012.03
2022-08-03T17:03:19.135Z,95013.72
2022-08-03T17:05:52.242Z,95004.47
2022-08-03T17:08:26.635Z,95015.97
2022-08-03T17:10:55.791Z,95011.97
2022-08-03T17:13:39.510Z,95011.06
2022-08-03T17:16:15.295Z,95014.03
2022-08-03T17:18:58.238Z,95020.94
2022-08-03T17:21:39.127Z,95013.22
2022-08-03T17:24:19.646Z,95027.44
2022-08-03T17:26:51.084Z,95021.81
2022-08-03T17:29:23.063Z,95026.88
2022-08-03T17:31:54.745Z,95035.81
2022-08-03T17:34:26.246Z,95033.31
2022-08-03T17:37:22.095Z,95033.25
2022-08-03T17:39:59.825Z,95034.84
2022-08-03T17:42:32.084Z,95032.06
2022-08-03T17:45:03.999Z,95036.84
2022-08-03T17:47:41.813Z,95038.88
2022-08-03T17:50:23.359Z,95044.31
2022-08-03T17:53:07.482Z,95033.03
2022-08-03T17:55:56.942Z,95045.16
2022-08-03T17:58:55.111Z,95044.41
2022-08-03T18:01:59.249Z,95038.34
2022-08-03T18:04:42.169Z,95039.72
2022-08-03T18:07:12.710Z,95048.59
2022-08-03T18:10:04.944Z,95042.75
2022-08-03T18:12:53.216Z,95048.78
2022-08-03T18:15:47.508Z,95057.03
2022-08-03T18:18:17.522Z,95054.63
2022-08-03T18:21:06.706Z,95048.44
2022-08-03T18:23:38.876Z,95061.88
2022-08-03T18:26:12.026Z,95067.13
2022-08-03T18:28:39.903Z,95062.53
2022-08-03T18:31:12.862Z,95066.16
2022-08-03T18:34:16.800Z,95070.56
2022-08-03T18:36:50.481Z,95068.66
2022-08-03T18:39:19.842Z,95074.41
2022-08-03T18:41:47.036Z,95079.47
2022-08-03T18:44:53.105Z,95080.31
2022-08-03T18:47:51.530Z,95081.09
2022-08-03T18:50:50.139Z,95082.28
2022-08-03T18:54:02.143Z,95086.69
2022-08-03T18:56:52.088Z,95087.22
2022-08-03T18:59:49.977Z,95086.78
2022-08-03T19:02:30.405Z,95090.63
2022-08-03T19:05:07.966Z,95090.03
2022-08-03T19:07:37.728Z,95085.47
2022-08-03T19:10:10.356Z,95091.72
2022-08-03T19:12:46.391Z,95093.66
2022-08-03T19:15:15.599Z,95089.09
2022-08-03T19:17:50.242Z,95096.13
2022-08-03T19:20:30.771Z,95096.41
2022-08-03T19:22:59.976Z,95095.03
2022-08-03T19:25:35.433Z,95099.34
2022-08-03T19:28:06.004Z,95103.66
2022-08-03T19:30:40.258Z,95104.41
2022-08-03T19:33:10.327Z,95098.69
2022-08-03T19:35:54.678Z,95111.56
2022-08-03T19:38:28.427Z,95110.66
2022-08-03T19:41:17.943Z,95114.63
2022-08-03T19:47:06.016Z,95118.69
2022-08-03T19:50:02.797Z,95112.09
2022-08-03T19:52:31.327Z,95110.63
2022-08-03T19:55:00.518Z,95115.88
2022-08-03T19:57:29.848Z,95114.16
2022-08-03T19:59:58.200Z,95120.47
2022-08-03T20:02:27.804Z,95115.44
2022-08-03T20:04:59.639Z,95109.88
2022-08-03T20:07:32.304Z,95116.13
2022-08-03T20:10:02.128Z,95122.19
2022-08-03T20:12:33.170Z,95116.34
2022-08-03T20:15:05.609Z,95114.88
2022-08-03T20:17:56.642Z,95111.75
2022-08-03T20:20:25.784Z,95118.53
2022-08-03T20:22:57.462Z,95114.88
2022-08-03T20:25:37.605Z,95119.22
2022-08-03T20:28:15.397Z,95117.69
2022-08-03T20:30:46.361Z,95118.00
2022-08-03T20:33:18.314Z,95116.69
2022-08-03T20:35:48.911Z,95112.41
2022-08-03T20:38:18.424Z,95114.09
2022-08-03T20:40:49.942Z,95105.03
2022-08-03T20:43:19.998Z,95108.81
2022-08-03T20:45:59.188Z,95101.91
2022-08-03T20:48:37.309Z,95108.66
2022-08-03T20:51:19.310Z,95098.50
2022-08-03T20:54:00.219Z,95100.44
2022-08-03T20:56:34.086Z,95103.94
2022-08-03T20:59:07.143Z,95100.53
2022-08-03T21:01:42.148Z,95098.16
2022-08-03T21:04:11.701Z,95102.72
2022-08-03T21:06:53.437Z,95097.41
2022-08-03T21:09:33.445Z,95106.28
2022-08-03T21:12:15.461Z,95103.13
2022-08-03T21:13:02.804Z,95115.28
2022-08-03T21:15:04.623Z,95109.38
2022-08-03T21:17:43.492Z,95107.78
2022-08-03T21:20:13.170Z,95113.72
2022-08-03T21:22:46.624Z,95112.16
2022-08-03T21:25:16.568Z,95115.97
2022-08-03T21:27:44.199Z,95107.66
2022-08-03T21:30:12.380Z,95106.38
2022-08-03T21:32:43.240Z,95117.66
2022-08-03T21:35:11.963Z,95113.94
2022-08-03T21:37:41.579Z,95114.50
2022-08-03T21:40:12.304Z,95109.44
2022-08-03T21:42:45.425Z,95128.50
2022-08-03T21:45:17.326Z,95124.75
2022-08-03T21:47:45.812Z,95126.66
2022-08-03T21:50:14.123Z,95128.00
2022-08-03T21:52:49.267Z,95123.44
2022-08-03T21:55:18.422Z,95133.38
2022-08-03T21:57:53.786Z,95129.38
2022-08-03T22:00:23.204Z,95124.81
2022-08-03T22:02:58.127Z,95119.47
2022-08-03T22:05:42.935Z,95128.84
2022-08-03T22:08:13.852Z,95128.28
2022-08-03T22:10:44.333Z,95119.75
2022-08-03T22:13:20.625Z,95122.44
2022-08-03T22:16:04.355Z,95124.56
2022-08-03T22:18:31.649Z,95122.97
2022-08-03T22:20:59.938Z,95123.50
2022-08-03T22:23:28.159Z,95128.06
2022-08-03T22:25:58.255Z,95121.38
2022-08-03T22:28:30.536Z,95127.00
2022-08-03T22:30:59.323Z,95124.84
2022-08-03T22:33:48.953Z,95125.38
2022-08-03T22:36:21.465Z,95124.28
2022-08-03T22:38:51.939Z,95133.69
2022-08-03T22:41:20.257Z,95122.19
2022-08-03T22:43:47.705Z,95120.84
2022-08-03T22:46:18.695Z,95127.00
2022-08-03T22:48:48.545Z,95128.34
2022-08-03T22:51:16.476Z,95127.03
2022-08-03T22:53:46.169Z,95132.13
2022-08-03T22:56:13.945Z,95123.28
2022-08-03T22:58:41.349Z,95129.16
2022-08-03T23:01:11.996Z,95128.38
2022-08-03T23:03:58.617Z,95126.22
2022-08-03T23:06:35.697Z,95123.81
2022-08-03T23:09:14.228Z,95122.19
2022-08-03T23:11:45.900Z,95126.97
2022-08-03T23:14:17.186Z,95125.91
2022-08-03T23:16:46.760Z,95121.63
2022-08-03T23:19:17.006Z,95118.94
2022-08-03T23:22:00.132Z,95122.16
2022-08-03T23:24:30.440Z,95118.41
2022-08-03T23:26:59.228Z,95119.72
2022-08-03T23:29:29.597Z,95121.03
2022-08-03T23:31:58.029Z,95126.66
2022-08-03T23:34:44.746Z,95118.09
2022-08-03T23:37:17.771Z,95127.72
2022-08-03T23:39:49.097Z,95130.41
2022-08-03T23:42:20.182Z,95125.31
2022-08-03T23:44:54.496Z,95129.06
2022-08-03T23:47:22.199Z,95119.97
2022-08-03T23:49:50.361Z,95127.19
2022-08-03T23:52:33.683Z,95123.72
2022-08-03T23:55:06.846Z,95125.56
2022-08-03T23:57:49.131Z,95122.38
